Terminal Aerodrome Forecast
Issued by NWS

Home | Current Version | Previous Version | Text Only | Print | Product List | Glossary On
Versions: 1 2 3 4 5 6 7 8 9 10 11 12 13 14
000
FTUS45 KTFX 180520
TAFHVR
TAF
KHVR 180520Z 1806/1906 30026G38KT P6SM SCT100 BKN200
     FM181100 27016G24KT P6SM FEW120 BKN250
     FM190000 22017G26KT P6SM FEW120 BKN250
     FM190200 22017G27KT P6SM BKN100=

USA.gov is the U.S. government's official web portal to all federal, state and local government web resources and services.